Terminal Aerodrome Forecast
Issued by NWS

Home | Current Version | Previous Version | Text Only | Print | Product List | Glossary On
Versions: 1 2 3 4 5 6 7 8 9 10 11 12 13 14 15
914
FTUS45 KRIW 192229 AAB
TAFBPI
TAF AMD
KBPI 192229Z 1922/2018 33012KT 3SM -SN OVC020
     FM200600 35007KT 5SM -SN OVC025
     FM201600 36008KT 3SM -SN OVC018=

USA.gov is the U.S. government's official web portal to all federal, state and local government web resources and services.